HLE70 EGTE-EGTE
Flight info
| Callsign | HLE70 |
|---|---|
| Flight time | 0h 5m |
| Altitude | 2000 |
| Route | VFR |
| Aircraft | EC45/L-VGDW/C |
Departure
| Time | 2026-04-11 16:43 |
|---|---|
| Airport | Exeter International Airport (EGTE) |
Arrival
| Time | 2026-04-11 16:48 |
|---|---|
| Airport | Exeter International Airport (EGTE) |
| Time | Latitude | Longitude | Altitude | Speed | Heading |
|---|---|---|---|---|---|
| 2026-04-11 16:36 | 50.73672 | -3.40963 | 93 ft | 0 kts | 11° |
| 2026-04-11 16:41 | 50.73672 | -3.40962 | 94 ft | 0 kts | 8° |
| 2026-04-11 16:41 | 50.73687 | -3.40942 | 141 ft | 4 kts | 222° |
| 2026-04-11 16:42 | 50.73675 | -3.40937 | 139 ft | 2 kts | 216° |
| 2026-04-11 16:42 | 50.73668 | -3.40939 | 132 ft | 3 kts | 192° |
| 2026-04-11 16:42 | 50.73550 | -3.40899 | 136 ft | 50 kts | 166° |
| 2026-04-11 16:43 | 50.72718 | -3.40253 | 520 ft | 65 kts | 186° |
| 2026-04-11 16:43 | 50.72240 | -3.40211 | 696 ft | 77 kts | 186° |
| 2026-04-11 16:43 | 50.71680 | -3.40108 | 782 ft | 83 kts | 184° |
| 2026-04-11 16:43 | 50.71144 | -3.40059 | 846 ft | 89 kts | 184° |
| 2026-04-11 16:44 | 50.70954 | -3.40065 | 867 ft | 92 kts | 180° |
| 2026-04-11 16:44 | 50.70282 | -3.40137 | 936 ft | 100 kts | 181° |
| 2026-04-11 16:44 | 50.69552 | -3.40215 | 933 ft | 109 kts | 180° |
| 2026-04-11 16:44 | 50.68779 | -3.40238 | 911 ft | 113 kts | 176° |
| 2026-04-11 16:45 | 50.67971 | -3.40197 | 888 ft | 114 kts | 174° |
| 2026-04-11 16:45 | 50.67195 | -3.40091 | 881 ft | 110 kts | 170° |
| 2026-04-11 16:45 | 50.66440 | -3.39928 | 889 ft | 108 kts | 168° |
| 2026-04-11 16:45 | 50.65699 | -3.39737 | 898 ft | 107 kts | 166° |
| 2026-04-11 16:46 | 50.64974 | -3.39518 | 926 ft | 104 kts | 165° |
| 2026-04-11 16:46 | 50.64285 | -3.39271 | 889 ft | 100 kts | 165° |
| 2026-04-11 16:46 | 50.63602 | -3.39050 | 825 ft | 99 kts | 169° |
| 2026-04-11 16:46 | 50.62991 | -3.38959 | 785 ft | 98 kts | 174° |
| 2026-04-11 16:47 | 50.62471 | -3.38914 | 774 ft | 94 kts | 175° |
| 2026-04-11 16:47 | 50.61846 | -3.38866 | 754 ft | 87 kts | 176° |
| 2026-04-11 16:47 | 50.61257 | -3.38987 | 730 ft | 79 kts | 201° |
| 2026-04-11 16:47 | 50.60952 | -3.39607 | 692 ft | 70 kts | 252° |
| 2026-04-11 16:48 | 50.60967 | -3.40349 | 611 ft | 66 kts | 281° |
| 2026-04-11 16:48 | 50.61297 | -3.40751 | 564 ft | 61 kts | 348° |
| 2026-04-11 16:48 | 50.61666 | -3.40611 | 547 ft | 48 kts | 27° |
| 2026-04-11 16:48 | 50.61789 | -3.40363 | 468 ft | 49 kts | 66° |
| 2026-04-11 16:49 | 50.61796 | -3.40240 | 438 ft | 47 kts | 88° |
| 2026-04-11 16:49 | 50.61599 | -3.39941 | 369 ft | 36 kts | 172° |
| 2026-04-11 16:49 | 50.61429 | -3.40084 | 273 ft | 22 kts | 232° |
| 2026-04-11 16:49 | 50.61339 | -3.40287 | 217 ft | 22 kts | 230° |
| 2026-04-11 16:50 | 50.61259 | -3.40462 | 112 ft | 17 kts | 229° |
| 2026-04-11 16:50 | 50.61218 | -3.40558 | 45 ft | 3 kts | 233° |
| 2026-04-11 16:50 | 50.61215 | -3.40569 | 26 ft | 1 kts | 231° |
| 2026-04-11 16:50 | 50.61214 | -3.40572 | 16 ft | 0 kts | 232° |
| 2026-04-11 16:52 | 50.61214 | -3.40576 | 19 ft | 0 kts | 201° |
| 2026-04-11 16:52 | 50.61213 | -3.40576 | 19 ft | 0 kts | 225° |
| 2026-04-11 16:52 | 50.61219 | -3.40568 | 68 ft | 3 kts | 229° |
| 2026-04-11 16:53 | 50.61226 | -3.40547 | 150 ft | 4 kts | 230° |
| 2026-04-11 16:53 | 50.61233 | -3.40525 | 229 ft | 3 kts | 230° |
| 2026-04-11 16:53 | 50.61208 | -3.40608 | 295 ft | 33 kts | 232° |
| 2026-04-11 16:53 | 50.61045 | -3.41161 | 484 ft | 74 kts | 253° |
| 2026-04-11 16:54 | 50.61194 | -3.41986 | 752 ft | 89 kts | 298° |
| 2026-04-11 16:54 | 50.61671 | -3.42757 | 926 ft | 102 kts | 317° |
| 2026-04-11 16:54 | 50.62256 | -3.43421 | 1121 ft | 107 kts | 323° |
| 2026-04-11 16:54 | 50.62925 | -3.44029 | 1198 ft | 116 kts | 329° |
| 2026-04-11 16:55 | 50.63660 | -3.44638 | 1257 ft | 121 kts | 333° |
| 2026-04-11 16:55 | 50.64467 | -3.45107 | 1252 ft | 127 kts | 341° |
| 2026-04-11 16:55 | 50.65336 | -3.45471 | 1220 ft | 130 kts | 345° |
| 2026-04-11 16:55 | 50.66211 | -3.45784 | 1224 ft | 129 kts | 346° |
| 2026-04-11 16:56 | 50.67971 | -3.45587 | 1216 ft | 127 kts | 19° |
| 2026-04-11 16:56 | 50.68733 | -3.44951 | 1300 ft | 120 kts | 31° |
| 2026-04-11 16:56 | 50.69385 | -3.44167 | 1370 ft | 118 kts | 37° |
| 2026-04-11 16:57 | 50.70030 | -3.43340 | 1330 ft | 121 kts | 37° |
| 2026-04-11 16:57 | 50.70739 | -3.42613 | 1194 ft | 117 kts | 19° |
| 2026-04-11 16:57 | 50.71468 | -3.42236 | 1115 ft | 102 kts | 17° |
| 2026-04-11 16:57 | 50.72069 | -3.41920 | 1030 ft | 77 kts | 19° |
| 2026-04-11 16:58 | 50.72523 | -3.41656 | 875 ft | 64 kts | 18° |
| 2026-04-11 16:58 | 50.72906 | -3.41428 | 683 ft | 54 kts | 17° |
| 2026-04-11 16:58 | 50.73218 | -3.41219 | 486 ft | 43 kts | 19° |
| 2026-04-11 16:58 | 50.73459 | -3.41072 | 304 ft | 30 kts | 18° |
| 2026-04-11 16:59 | 50.73605 | -3.40984 | 172 ft | 16 kts | 18° |
| 2026-04-11 16:59 | 50.73656 | -3.40948 | 107 ft | 5 kts | 245° |
| 2026-04-11 16:59 | 50.73659 | -3.40962 | 97 ft | 0 kts | 213° |
| 2026-04-11 16:59 | 50.73656 | -3.40963 | 93 ft | 0 kts | 229° |